In Rescue
 
Open Full Screen Window  High Contrast Mode
Wind Gusting 19 knots
14
May 19, 2019 11:55 AM CDT
Present Weather: Light Rain
Weather Information
Wind Direction
  040 °
Wind Speed
  14 kt (16 mph)
Wind Gust
  19 kt (22 mph)
Altimeter
29.90 in
Visibility
10 SM
Temperature
04° C
39° F
Dewpoint
02° C
36° F
Humidity
87%
1hr Rain Fall
00.00 in.
24hr Rain Fall
00.04 in.
Sky Condition
Scattered @ 2,300 ft
VFR

METAR KADC 191655Z AUTO 04014G19KT 10SM -RA SCT023 04/02 A2990 RMK AO2

FAA Disclaimer: The data displayed is for advisory purposes only and is not to be used for flight planning or operations.